Time;durP1;ratioP1;P1;durP2;ratioP2;P2;SDS_P1;SDS_P2;PMS_P1;PMS_P2;Temp;Humidity;BMP_temperature;BMP_pressure;BME280_temperature;BME280_humidity;BME280_pressure;Samples;Min_cycle;Max_cycle;Signal;HPM_P1;HPM_P2
2022/12/18 00:01:06;;;;;;;;;55.00;46.75;;;;;-1.57;100.00;101738.50;6288033;22;44752;-85
2022/12/18 00:03:35;;;;;;;;;50.75;44.50;;;;;-1.54;100.00;101749.16;6254978;22;45405;-82
2022/12/18 00:06:02;;;;;;;;;60.25;48.75;;;;;-1.53;100.00;101751.88;6255750;22;45321;-84
2022/12/18 00:08:28;;;;;;;;;52.00;45.25;;;;;-1.53;100.00;101754.50;6283150;22;45084;-83
2022/12/18 00:10:54;;;;;;;;;54.50;47.50;;;;;-1.58;100.00;101748.00;6284059;22;44813;-83
2022/12/18 00:13:21;;;;;;;;;49.50;45.00;;;;;-1.54;100.00;101754.38;6260664;22;45237;-83
2022/12/18 00:15:46;;;;;;;;;65.75;52.00;;;;;-1.60;100.00;101739.13;6256164;22;44824;-84
2022/12/18 00:18:12;;;;;;;;;49.00;44.00;;;;;-1.54;100.00;101749.16;6258598;22;46830;-85
2022/12/18 00:20:40;;;;;;;;;45.50;39.00;;;;;-1.55;100.00;101750.84;6258898;22;45414;-85
2022/12/18 00:23:07;;;;;;;;;69.00;52.75;;;;;-1.52;100.00;101745.88;6257325;22;44809;-86
2022/12/18 00:25:35;;;;;;;;;73.50;52.50;;;;;-1.52;100.00;101748.47;6259631;22;44782;-86
2022/12/18 00:28:04;;;;;;;;;61.50;49.00;;;;;-1.52;100.00;101753.69;6260594;22;45277;-85
2022/12/18 00:30:30;;;;;;;;;45.00;42.75;;;;;-1.55;100.00;101743.03;6261637;22;45327;-85
2022/12/18 00:32:58;;;;;;;;;62.75;48.50;;;;;-1.53;100.00;101746.66;6258297;22;45227;-86
2022/12/18 00:35:25;;;;;;;;;56.25;48.00;;;;;-1.50;100.00;101749.50;6257297;22;45478;-84
2022/12/18 00:37:51;;;;;;;;;61.50;52.00;;;;;-1.50;100.00;101751.22;6256321;22;46697;-84
2022/12/18 00:40:17;;;;;;;;;62.75;48.50;;;;;-1.55;100.00;101747.34;6258807;22;45373;-84
2022/12/18 00:42:57;;;;;;;;;58.00;49.50;;;;;-1.51;100.00;101760.75;6258887;22;45693;-85
2022/12/18 00:45:28;;;;;;;;;60.75;45.75;;;;;-1.57;100.00;101739.41;6258792;22;45346;-85
2022/12/18 00:47:56;;;;;;;;;43.50;42.50;;;;;-1.64;100.00;101722.34;6256373;22;47120;-85
2022/12/18 00:50:24;;;;;;;;;51.50;46.50;;;;;-1.58;100.00;101734.94;6254537;22;45219;-85
2022/12/18 00:52:50;;;;;;;;;54.50;47.50;;;;;-1.55;100.00;101743.03;6250615;22;45393;-84
2022/12/18 00:55:16;;;;;;;;;63.00;53.50;;;;;-1.59;100.00;101735.75;6255207;22;45365;-84
2022/12/18 00:57:42;;;;;;;;;52.25;48.00;;;;;-1.67;100.00;101714.28;6256362;22;45288;-84
2022/12/18 01:00:14;;;;;;;;;47.00;42.75;;;;;-1.63;100.00;101720.66;6280277;22;45419;-85
2022/12/18 01:02:40;;;;;;;;;64.75;54.75;;;;;-1.57;100.00;101728.97;6253523;22;45375;-85
2022/12/18 01:05:06;;;;;;;;;58.75;48.75;;;;;-1.58;100.00;101728.84;6252640;22;45470;-85
2022/12/18 01:07:32;;;;;;;;;57.00;48.25;;;;;-1.66;100.00;101715.19;6251488;22;46703;-84
2022/12/18 01:10:01;;;;;;;;;45.75;44.50;;;;;-1.64;100.00;101726.63;6251708;22;45148;-83
2022/12/18 01:12:27;;;;;;;;;49.00;47.00;;;;;-1.64;100.00;101717.16;6251226;22;45423;-84
2022/12/18 01:14:53;;;;;;;;;62.25;51.00;;;;;-1.63;100.00;101713.72;6253169;22;45422;-83
2022/12/18 01:17:18;;;;;;;;;54.75;49.00;;;;;-1.62;100.00;101730.28;6279980;22;45869;-84
2022/12/18 01:19:44;;;;;;;;;55.75;47.75;;;;;-1.65;100.00;101712.69;6254134;22;45461;-84
2022/12/18 01:22:09;;;;;;;;;61.25;51.75;;;;;-1.68;100.00;101704.63;6253719;22;45314;-84
2022/12/18 01:24:41;;;;;;;;;55.25;47.75;;;;;-1.73;100.00;101705.97;6256409;22;45307;-83
2022/12/18 01:27:07;;;;;;;;;55.25;48.50;;;;;-1.65;100.00;101717.00;6254405;22;44925;-84
2022/12/18 01:29:32;;;;;;;;;56.00;46.25;;;;;-1.65;100.00;101720.53;6251523;22;45899;-85
2022/12/18 01:31:58;;;;;;;;;40.50;40.50;;;;;-1.65;100.00;101719.63;6252339;22;45291;-85
2022/12/18 01:34:25;;;;;;;;;60.00;46.25;;;;;-1.69;100.00;101717.56;6254303;22;45265;-85
2022/12/18 01:36:53;;;;;;;;;56.75;42.50;;;;;-1.69;100.00;101717.56;6253286;22;45716;-85
2022/12/18 01:39:19;;;;;;;;;52.75;47.00;;;;;-1.67;100.00;101721.19;6251278;22;45281;-85
2022/12/18 01:42:01;;;;;;;;;55.25;47.25;;;;;-1.69;100.00;101718.47;6254019;22;45679;-84
2022/12/18 01:45:05;;;;;;;;;63.00;49.50;;;;;-1.71;100.00;101716.53;6258462;22;44737;-85
2022/12/18 01:47:57;;;;;;;;;53.75;47.00;;;;;-1.73;100.00;101710.28;6277356;22;46885;-85
2022/12/18 01:50:33;;;;;;;;;63.75;50.00;;;;;-1.72;100.00;101701.66;6254027;22;44713;-84
2022/12/18 01:53:15;;;;;;;;;61.25;49.75;;;;;-1.81;100.00;101694.94;6255987;22;44819;-84
2022/12/18 01:55:56;;;;;;;;;44.75;34.00;;;;;-1.83;100.00;101687.78;6257113;22;45325;-84
2022/12/18 01:58:34;;;;;;;;;57.50;48.00;;;;;-1.86;100.00;101687.53;6255593;22;45202;-84
2022/12/18 02:01:00;;;;;;;;;57.50;48.00;;;;;-1.87;100.00;101686.63;6285060;22;44724;-85
2022/12/18 02:03:48;;;;;;;;;57.00;47.25;;;;;-1.84;100.00;101693.78;6259784;22;44666;-84
2022/12/18 02:06:16;;;;;;;;;50.50;44.50;;;;;-1.92;100.00;101674.94;6259114;22;45282;-85
2022/12/18 02:08:51;;;;;;;;;60.00;48.25;;;;;-1.86;100.00;101688.47;6284099;22;46723;-85
2022/12/18 02:11:47;;;;;;;;;60.25;51.00;;;;;-1.86;100.00;101680.63;6259827;22;45274;-84
2022/12/18 02:14:45;;;;;;;;;57.00;48.75;;;;;-1.87;100.00;101686.63;6257744;22;45362;-83
2022/12/18 02:17:19;;;;;;;;;56.50;48.25;;;;;-1.92;100.00;101674.94;6277643;22;45368;-84
2022/12/18 02:20:23;;;;;;;;;56.75;49.00;;;;;-1.90;100.00;101686.41;6250780;22;45361;-84
2022/12/18 02:23:05;;;;;;;;;64.00;50.50;;;;;-1.90;100.00;101678.59;6127611;23;45343;-85
2022/12/18 02:26:10;;;;;;;;;56.00;44.00;;;;;-1.92;100.00;101669.72;6128319;23;45353;-85
2022/12/18 02:28:49;;;;;;;;;53.00;48.50;;;;;-1.96;100.00;101656.31;6105521;23;45327;-85
2022/12/18 02:31:23;;;;;;;;;54.75;45.00;;;;;-1.92;100.00;101666.19;6128985;23;46966;-85
2022/12/18 02:33:51;;;;;;;;;61.50;52.25;;;;;-1.95;100.00;101660.75;6129300;23;45564;-86
2022/12/18 02:36:20;;;;;;;;;57.00;47.25;;;;;-1.96;100.00;101662.47;6130716;23;44830;-85
2022/12/18 02:38:47;;;;;;;;;53.75;47.00;;;;;-1.94;100.00;101670.38;6131655;23;45269;-83
2022/12/18 02:41:16;;;;;;;;;57.75;45.25;;;;;-1.93;100.00;101670.50;6105729;23;47435;-84
2022/12/18 02:43:47;;;;;;;;;50.75;45.50;;;;;-2.00;100.00;101652.53;6128980;23;45433;-84
2022/12/18 02:46:27;;;;;;;;;53.25;45.25;;;;;-1.95;100.00;101659.03;6128632;23;45473;-85
2022/12/18 02:49:02;;;;;;;;;60.25;48.00;;;;;-1.96;100.00;101662.47;6129209;23;45516;-84
2022/12/18 02:51:44;;;;;;;;;43.50;37.25;;;;;-1.97;100.00;101658.00;6123695;23;45718;-83
2022/12/18 02:54:23;;;;;;;;;51.50;44.50;;;;;-2.08;100.00;101638.94;6100125;23;45936;-85
2022/12/18 02:56:56;;;;;;;;;51.50;47.00;;;;;-2.06;100.00;101626.00;6100712;23;45420;-83
2022/12/18 02:59:34;;;;;;;;;65.50;49.00;;;;;-2.00;100.00;101642.13;6254797;22;44839;-83
2022/12/18 03:02:06;;;;;;;;;48.50;45.00;;;;;-2.01;100.00;101642.91;6253867;22;45412;-84
2022/12/18 03:04:43;;;;;;;;;43.50;35.75;;;;;-2.02;100.00;101646.31;6255048;22;45653;-83
2022/12/18 03:07:18;;;;;;;;;20.00;18.25;;;;;-2.08;100.00;101627.56;6251906;22;45347;-84
2022/12/18 03:09:50;;;;;;;;;47.00;45.25;;;;;-2.05;100.00;101639.16;6252749;22;45528;-86
2022/12/18 03:12:24;;;;;;;;;56.25;48.50;;;;;-2.04;100.00;101658.31;6252488;22;48382;-83
2022/12/18 03:15:24;;;;;;;;;59.25;49.75;;;;;-2.03;100.00;101647.09;6230251;22;45283;-83
2022/12/18 03:18:01;;;;;;;;;54.50;46.75;;;;;-2.04;100.00;101647.88;6247384;22;45413;-85
2022/12/18 03:20:31;;;;;;;;;43.50;40.00;;;;;-2.07;100.00;101639.84;6253480;22;45267;-85
2022/12/18 03:23:10;;;;;;;;;45.50;42.50;;;;;-2.02;100.00;101656.72;6278766;22;47899;-85
2022/12/18 03:25:40;;;;;;;;;60.75;48.00;;;;;-2.06;100.00;101650.38;6254804;22;45303;-85
2022/12/18 03:28:11;;;;;;;;;49.75;43.25;;;;;-2.08;100.00;101644.16;6253399;22;45335;-85
2022/12/18 03:31:18;;;;;;;;;57.50;45.25;;;;;-2.01;100.00;101662.06;6252713;22;45501;-85
2022/12/18 03:33:52;;;;;;;;;54.25;46.50;;;;;-2.08;100.00;101648.41;6253041;22;46880;-84
2022/12/18 03:36:18;;;;;;;;;46.00;42.75;;;;;-2.04;100.00;101660.91;6254038;22;45342;-84
2022/12/18 03:38:43;;;;;;;;;53.25;44.00;;;;;-2.06;100.00;101657.28;6279268;22;45334;-84
2022/12/18 03:41:28;;;;;;;;;48.50;42.00;;;;;-2.04;100.00;101654.03;6256175;22;45262;-84
2022/12/18 03:44:12;;;;;;;;;55.75;46.00;;;;;-2.13;100.00;101634.13;6253346;22;45347;-84
2022/12/18 03:47:09;;;;;;;;;55.50;46.00;;;;;-2.03;100.00;101649.72;6248606;22;45255;-85
2022/12/18 03:50:03;;;;;;;;;45.00;42.00;;;;;-2.11;100.00;101638.69;6271022;22;45346;-84
2022/12/18 03:52:42;;;;;;;;;53.50;47.50;;;;;-2.11;100.00;101638.69;6249147;22;45505;-85
2022/12/18 03:55:09;;;;;;;;;58.25;46.25;;;;;-2.16;100.00;101645.25;6252270;22;47454;-85
2022/12/18 04:01:02;;;;;;;;;59.25;47.25;;;;;-2.28;100.00;101624.31;6254699;22;44846;-84
2022/12/18 04:03:31;;;;;;;;;66.00;49.25;;;;;-2.28;100.00;101619.09;6255345;22;45433;-84
2022/12/18 04:06:00;;;;;;;;;54.50;46.00;;;;;-2.28;100.00;101613.91;6255049;22;48248;-84
2022/12/18 04:08:29;;;;;;;;;55.50;49.00;;;;;-2.28;100.00;101616.50;6255603;22;45327;-83
2022/12/18 04:10:54;;;;;;;;;59.00;50.00;;;;;-2.31;100.00;101613.63;6254537;22;45288;-84
2022/12/18 04:13:29;;;;;;;;;51.50;46.50;;;;;-2.36;100.00;101614.97;6255807;22;45412;-85
2022/12/18 04:15:56;;;;;;;;;50.00;44.25;;;;;-2.32;100.00;101619.66;6254179;22;45411;-84
2022/12/18 04:18:21;;;;;;;;;51.00;45.00;;;;;-2.29;100.00;101639.81;6250098;22;45338;-84
2022/12/18 04:20:47;;;;;;;;;65.50;49.50;;;;;-2.29;100.00;101639.81;6248706;22;45251;-85
2022/12/18 04:23:13;;;;;;;;;49.75;46.00;;;;;-2.31;100.00;101628.38;6249028;22;45758;-85
2022/12/18 04:25:39;;;;;;;;;50.00;46.50;;;;;-2.47;100.00;101597.56;6252557;22;45448;-85
2022/12/18 04:28:05;;;;;;;;;64.25;50.75;;;;;-2.37;100.00;101614.84;6249081;22;45370;-85
2022/12/18 04:30:30;;;;;;;;;56.75;48.75;;;;;-2.39;100.00;101608.63;6248675;22;45745;-84
2022/12/18 04:32:55;;;;;;;;;50.50;44.50;;;;;-2.39;100.00;101609.50;6250720;22;45348;-84
2022/12/18 04:35:21;;;;;;;;;52.25;48.00;;;;;-2.43;100.00;101610.06;6251229;22;46219;-84
2022/12/18 04:41:10;;;;;;;;;60.25;47.75;;;;;-2.48;100.00;101629.63;6249320;22;45366;-84
2022/12/18 04:43:35;;;;;;;;;54.50;49.00;;;;;-2.47;100.00;101631.44;6248725;22;45322;-85
2022/12/18 04:46:07;;;;;;;;;55.75;49.00;;;;;-2.44;100.00;101642.13;6250049;22;45270;-85
2022/12/18 04:48:34;;;;;;;;;50.25;45.25;;;;;-2.45;100.00;101649.00;6250764;22;45412;-84
2022/12/18 04:50:59;;;;;;;;;50.75;47.50;;;;;-2.48;100.00;101624.44;6250753;22;45481;-83
2022/12/18 04:53:32;;;;;;;;;57.50;45.00;;;;;-2.45;100.00;101629.88;6248970;22;45251;-84
2022/12/18 04:56:05;;;;;;;;;47.00;36.75;;;;;-2.46;100.00;101633.28;6252628;22;45394;-84
2022/12/18 04:58:30;;;;;;;;;54.50;48.00;;;;;-2.51;100.00;101626.78;6248892;22;45318;-84
2022/12/18 05:00:56;;;;;;;;;56.75;47.50;;;;;-2.47;100.00;101631.44;6248973;22;44840;-84
2022/12/18 05:03:22;;;;;;;;;45.25;45.00;;;;;-2.51;100.00;101631.97;6272592;22;45487;-84
2022/12/18 05:05:51;;;;;;;;;55.25;46.50;;;;;-2.49;100.00;101638.22;6274892;22;46870;-84
2022/12/18 05:08:17;;;;;;;;;39.50;36.75;;;;;-2.51;100.00;101640.69;6253705;22;45802;-84
2022/12/18 05:10:42;;;;;;;;;53.25;48.00;;;;;-2.56;100.00;101630.72;6251005;22;45297;-85
2022/12/18 05:13:08;;;;;;;;;58.25;46.25;;;;;-2.56;100.00;101635.91;6253546;22;45246;-84
2022/12/18 05:15:34;;;;;;;;;65.00;49.50;;;;;-2.51;100.00;101647.59;6250937;22;46592;-83
2022/12/18 05:18:01;;;;;;;;;58.25;48.00;;;;;-2.51;100.00;101642.41;6250987;22;45504;-82
2022/12/18 05:20:27;;;;;;;;;61.75;49.00;;;;;-2.52;100.00;101648.41;6252928;22;45288;-83
2022/12/18 05:22:54;;;;;;;;;56.00;48.00;;;;;-2.55;100.00;101649.03;6249602;22;45391;-85
2022/12/18 05:25:20;;;;;;;;;51.00;44.00;;;;;-2.58;100.00;101648.81;6248563;22;48009;-85
2022/12/18 05:31:09;;;;;;;;;50.75;44.50;;;;;-2.51;100.00;101677.16;6254106;22;45321;-84
2022/12/18 05:33:35;;;;;;;;;57.75;45.25;;;;;-2.55;100.00;101658.56;6250609;22;44963;-83
2022/12/18 05:36:04;;;;;;;;;58.25;44.00;;;;;-2.56;100.00;101651.53;6250185;22;47289;-83
2022/12/18 05:38:31;;;;;;;;;39.25;32.75;;;;;-2.60;100.00;101639.97;6251811;22;45358;-84
2022/12/18 05:40:58;;;;;;;;;53.50;45.00;;;;;-2.56;100.00;101651.53;6255486;22;45310;-84
2022/12/18 05:44:17;;;;;;;;;58.25;43.50;;;;;-2.54;100.00;101644.78;6257098;22;45472;-84
2022/12/18 05:46:42;;;;;;;;;54.50;48.75;;;;;-2.57;100.00;101650.63;6255104;22;46785;-84
2022/12/18 05:49:08;;;;;;;;;57.50;48.00;;;;;-2.63;100.00;101637.09;6256983;22;44775;-83
2022/12/18 05:51:33;;;;;;;;;43.25;36.25;;;;;-2.62;100.00;101638.94;6255051;22;45185;-83
2022/12/18 05:53:58;;;;;;;;;54.25;45.00;;;;;-2.63;100.00;101643.25;6254809;22;45273;-83
2022/12/18 05:56:24;;;;;;;;;35.00;29.00;;;;;-2.63;100.00;101634.50;6257034;22;45336;-84
2022/12/18 05:58:54;;;;;;;;;58.50;48.50;;;;;-2.67;100.00;101628.13;6257801;22;45342;-84
2022/12/18 06:01:26;;;;;;;;;55.50;48.50;;;;;-2.69;100.00;101619.28;6260763;22;45344;-83
2022/12/18 06:03:52;;;;;;;;;43.50;38.50;;;;;-2.75;100.00;101604.84;6260580;22;44855;-84
2022/12/18 06:06:26;;;;;;;;;51.50;46.50;;;;;-2.64;100.00;101627.47;6261367;22;46591;-85
2022/12/18 06:08:52;;;;;;;;;38.75;36.75;;;;;-2.66;100.00;101614.34;6264365;22;45354;-84
2022/12/18 06:11:38;;;;;;;;;48.75;43.75;;;;;-2.63;100.00;101625.00;6264354;22;44842;-84
2022/12/18 06:14:05;;;;;;;;;55.75;45.75;;;;;-2.62;100.00;101623.31;6265177;22;45424;-84
2022/12/18 06:16:32;;;;;;;;;51.00;46.75;;;;;-2.60;100.00;101628.66;6266249;22;46811;-84
2022/12/18 06:19:04;;;;;;;;;53.75;46.75;;;;;-2.60;100.00;101623.44;6265067;22;45402;-84
2022/12/18 06:21:31;;;;;;;;;47.50;42.00;;;;;-2.66;100.00;101623.84;6266435;22;45445;-83
2022/12/18 06:23:56;;;;;;;;;45.75;43.75;;;;;-2.59;100.00;101633.06;6264020;22;44860;-84
2022/12/18 06:26:23;;;;;;;;;53.50;46.00;;;;;-2.59;100.00;101626.13;6266094;22;45337;-84
2022/12/18 06:28:49;;;;;;;;;51.25;43.75;;;;;-2.59;100.00;101627.84;6265937;22;44775;-85
2022/12/18 06:31:15;;;;;;;;;53.75;45.50;;;;;-2.62;100.00;101626.81;6264153;22;44798;-84
2022/12/18 06:33:40;;;;;;;;;42.50;39.75;;;;;-2.60;100.00;101633.84;6263129;22;45407;-83
2022/12/18 06:36:09;;;;;;;;;53.75;46.75;;;;;-2.64;100.00;101623.19;6264741;22;45028;-84
2022/12/18 06:38:36;;;;;;;;;47.25;40.75;;;;;-2.62;100.00;101633.72;6288910;22;45388;-85
2022/12/18 06:41:14;;;;;;;;;45.00;43.50;;;;;-2.62;100.00;101619.00;6289009;22;44817;-84
2022/12/18 06:43:39;;;;;;;;;51.50;45.50;;;;;-2.67;100.00;101609.91;6291026;22;44822;-83
2022/12/18 06:46:05;;;;;;;;;55.00;46.25;;;;;-2.69;100.00;101607.97;6263782;22;45956;-83
2022/12/18 06:48:31;;;;;;;;;53.25;40.00;;;;;-2.69;100.00;101614.06;6263247;22;45388;-83
2022/12/18 06:50:57;;;;;;;;;54.25;45.75;;;;;-2.71;100.00;101620.84;6263420;22;45196;-83
2022/12/18 06:53:22;;;;;;;;;50.25;44.50;;;;;-2.70;100.00;101611.38;6261384;22;45307;-85
2022/12/18 06:55:48;;;;;;;;;47.25;42.50;;;;;-2.70;100.00;101606.16;6263673;22;45368;-84
2022/12/18 06:58:14;;;;;;;;;46.00;43.75;;;;;-2.75;100.00;101597.06;6264134;22;44795;-84
2022/12/18 07:00:39;;;;;;;;;49.25;44.25;;;;;-2.71;100.00;101602.63;6262677;22;45306;-84
2022/12/18 07:03:12;;;;;;;;;50.00;43.00;;;;;-2.73;100.00;101588.56;6264418;22;44836;-84
2022/12/18 07:05:41;;;;;;;;;47.50;37.25;;;;;-2.76;100.00;101585.75;6261300;22;47443;-85
2022/12/18 07:08:07;;;;;;;;;48.25;40.50;;;;;-2.73;100.00;101601.59;6262329;22;45145;-84
2022/12/18 07:10:32;;;;;;;;;57.50;43.25;;;;;-2.74;100.00;101605.00;6264755;22;44793;-83
2022/12/18 07:12:57;;;;;;;;;50.75;43.50;;;;;-2.79;100.00;101595.88;6260071;22;44898;-83
2022/12/18 07:15:23;;;;;;;;;57.50;45.25;;;;;-2.79;100.00;101585.47;6259804;22;46405;-83
2022/12/18 07:17:48;;;;;;;;;47.75;41.75;;;;;-2.84;100.00;101577.28;6257099;22;45282;-84
2022/12/18 07:20:14;;;;;;;;;55.75;48.00;;;;;-2.76;100.00;101583.13;6256477;22;45633;-84
2022/12/18 07:22:39;;;;;;;;;45.00;42.75;;;;;-2.80;100.00;101581.06;6257816;22;45339;-84
2022/12/18 07:25:12;;;;;;;;;46.75;43.00;;;;;-2.72;100.00;101586.91;6255039;22;45226;-84
2022/12/18 07:27:38;;;;;;;;;47.50;42.75;;;;;-2.70;100.00;101594.03;6252254;22;45156;-84
2022/12/18 07:30:04;;;;;;;;;61.50;48.00;;;;;-2.70;100.00;101596.66;6250289;22;45331;-83
2022/12/18 07:32:30;;;;;;;;;47.00;41.25;;;;;-2.71;100.00;101594.81;6277741;22;45427;-83
2022/12/18 07:34:55;;;;;;;;;52.00;44.00;;;;;-2.75;100.00;101592.75;6251824;22;46067;-83
2022/12/18 07:37:21;;;;;;;;;49.00;41.25;;;;;-2.71;100.00;101597.41;6252132;22;44744;-85
2022/12/18 07:39:46;;;;;;;;;44.75;42.50;;;;;-2.75;100.00;101591.84;6254083;22;45230;-84
2022/12/18 07:42:31;;;;;;;;;54.50;46.00;;;;;-2.72;100.00;101608.63;6256227;22;45076;-84
2022/12/18 07:44:58;;;;;;;;;41.50;38.50;;;;;-2.70;100.00;101614.88;6254641;22;47186;-84
2022/12/18 07:47:24;;;;;;;;;50.75;41.75;;;;;-2.72;100.00;101619.03;6253997;22;44950;-84
2022/12/18 07:49:49;;;;;;;;;51.50;44.00;;;;;-2.66;100.00;101624.75;6254220;22;45392;-84
2022/12/18 07:52:15;;;;;;;;;43.25;38.50;;;;;-2.64;100.00;101624.88;6254600;22;45401;-84
2022/12/18 07:54:49;;;;;;;;;54.00;45.00;;;;;-2.65;100.00;101607.41;6251544;22;45895;-83
2022/12/18 07:57:16;;;;;;;;;49.50;40.75;;;;;-2.65;100.00;101610.94;6255822;22;45454;-85
2022/12/18 07:59:44;;;;;;;;;49.25;41.25;;;;;-2.68;100.00;101596.78;6253774;22;45327;-84
2022/12/18 08:02:10;;;;;;;;;49.75;45.25;;;;;-2.65;100.00;101605.72;6253525;22;45324;-84
2022/12/18 08:05:18;;;;;;;;;43.00;39.75;;;;;-2.60;100.00;101600.00;6254798;22;46694;-85
2022/12/18 08:07:43;;;;;;;;;63.25;50.25;;;;;-2.59;100.00;101601.81;6253623;22;45295;-84
2022/12/18 08:10:09;;;;;;;;;54.50;45.00;;;;;-2.59;100.00;101583.56;6252111;22;45754;-84
2022/12/18 08:12:34;;;;;;;;;51.50;46.00;;;;;-2.72;100.00;101571.28;6278332;22;44795;-84
2022/12/18 08:15:00;;;;;;;;;54.75;45.25;;;;;-2.62;100.00;101590.34;6253223;22;46833;-84
2022/12/18 08:17:25;;;;;;;;;55.50;46.00;;;;;-2.59;100.00;101600.09;6253228;22;45314;-84
2022/12/18 08:19:51;;;;;;;;;44.25;40.00;;;;;-2.54;100.00;101605.69;6253288;22;45351;-84
2022/12/18 08:22:16;;;;;;;;;42.00;37.50;;;;;-2.57;100.00;101598.53;6278542;22;45414;-84
2022/12/18 08:24:42;;;;;;;;;51.75;45.25;;;;;-2.54;100.00;101598.78;6253735;22;47075;-84
2022/12/18 08:27:08;;;;;;;;;57.25;48.00;;;;;-2.53;100.00;101587.56;6252905;22;45158;-84
2022/12/18 08:29:33;;;;;;;;;45.75;44.50;;;;;-2.44;100.00;101606.56;6253376;22;45132;-84
2022/12/18 08:31:59;;;;;;;;;61.00;48.00;;;;;-2.48;100.00;101603.59;6253741;22;45454;-84
2022/12/18 08:34:24;;;;;;;;;54.50;48.00;;;;;-2.49;100.00;101602.66;6253141;22;46863;-84
2022/12/18 08:36:49;;;;;;;;;57.50;45.75;;;;;-2.40;100.00;101610.31;6252513;22;45394;-83
2022/12/18 08:39:15;;;;;;;;;54.50;45.25;;;;;-2.36;100.00;101617.59;6254718;22;45635;-84
2022/12/18 08:41:40;;;;;;;;;42.00;42.00;;;;;-2.35;100.00;101627.22;6258674;22;44833;-83
2022/12/18 08:46:52;;;;;;;;;38.50;33.00;;;;;-2.36;100.00;101625.41;6257349;22;45445;-84
2022/12/18 08:49:17;;;;;;;;;32.75;30.00;;;;;-2.37;100.00;101622.66;6281896;22;45345;-85
2022/12/18 08:51:43;;;;;;;;;51.25;40.00;;;;;-2.38;100.00;101628.66;6258425;22;45645;-83
2022/12/18 08:54:12;;;;;;;;;48.50;44.00;;;;;-2.39;100.00;101627.75;6251110;22;46909;-85
2022/12/18 08:56:37;;;;;;;;;54.50;46.00;;;;;-2.33;100.00;101635.16;6253608;22;45339;-84
2022/12/18 08:59:04;;;;;;;;;51.00;41.50;;;;;-2.37;100.00;101620.97;6255035;22;45311;-84
2022/12/18 09:01:29;;;;;;;;;46.75;42.75;;;;;-2.29;100.00;101626.78;6255763;22;45347;-84
2022/12/18 09:03:55;;;;;;;;;54.75;48.00;;;;;-2.34;100.00;101613.41;6279156;22;46670;-85
2022/12/18 09:06:22;;;;;;;;;46.75;42.25;;;;;-2.27;100.00;101618.31;6253343;22;45461;-85
2022/12/18 09:08:48;;;;;;;;;53.50;49.00;;;;;-2.26;100.00;101619.25;6254395;22;45374;-85
2022/12/18 09:11:26;;;;;;;;;56.25;47.75;;;;;-2.24;100.00;101615.97;6257090;22;45434;-84
2022/12/18 09:13:53;;;;;;;;;56.75;46.50;;;;;-2.18;100.00;101630.25;6256731;22;48097;-83
2022/12/18 09:16:20;;;;;;;;;65.25;52.50;;;;;-2.16;100.00;101624.38;6255885;22;45284;-84
2022/12/18 09:18:46;;;;;;;;;60.25;48.75;;;;;-2.11;100.00;101611.72;6254542;22;45243;-85
2022/12/18 09:21:17;;;;;;;;;52.25;48.00;;;;;-2.10;100.00;101603.09;6256528;22;44808;-84
2022/12/18 09:23:43;;;;;;;;;58.75;48.25;;;;;-2.05;100.00;101617.41;6255106;22;46782;-85
2022/12/18 09:26:08;;;;;;;;;57.25;48.25;;;;;-1.98;100.00;101627.50;6254418;22;45245;-84
2022/12/18 09:28:34;;;;;;;;;59.00;48.75;;;;;-1.91;100.00;101616.78;6257375;22;45281;-83
2022/12/18 09:31:06;;;;;;;;;55.50;48.00;;;;;-1.96;100.00;101589.47;6281337;22;44854;-83
2022/12/18 09:33:31;;;;;;;;;63.25;49.00;;;;;-1.89;100.00;101604.78;6254842;22;46686;-84
2022/12/18 09:35:57;;;;;;;;;63.75;52.50;;;;;-1.88;100.00;101598.78;6254562;22;45337;-83
2022/12/18 09:38:23;;;;;;;;;50.00;47.50;;;;;-1.77;100.00;101601.31;6260744;22;45410;-84
2022/12/18 09:44:22;;;;;;;;;64.50;51.50;;;;;-1.64;100.00;101620.63;6258126;22;45406;-83
2022/12/18 09:46:59;;;;;;;;;53.50;48.00;;;;;-1.62;100.00;101606.03;6257596;22;45379;-85
2022/12/18 09:49:30;;;;;;;;;69.50;49.00;;;;;-1.55;100.00;101610.00;6258189;22;45296;-84
2022/12/18 09:52:09;;;;;;;;;46.75;42.00;;;;;-1.51;100.00;101604.22;6255366;22;45632;-84
2022/12/18 09:54:50;;;;;;;;;60.75;50.75;;;;;-1.46;100.00;101600.25;6252413;22;47134;-84
2022/12/18 09:57:20;;;;;;;;;54.25;45.25;;;;;-1.41;100.00;101596.31;6253923;22;45472;-84
2022/12/18 09:59:52;;;;;;;;;49.50;46.00;;;;;-1.34;100.00;101595.06;6256045;22;45231;-84
2022/12/18 10:06:05;;;;;;;;;52.75;46.00;;;;;-1.31;100.00;101594.41;6256435;22;45306;-85
2022/12/18 10:08:42;;;;;;;;;46.00;40.25;;;;;-1.28;100.00;101599.84;6254636;22;45354;-85
2022/12/18 10:11:34;;;;;;;;;59.50;48.00;;;;;-1.27;100.00;101593.84;6282310;22;45455;-84
2022/12/18 10:14:33;;;;;;;;;56.50;49.00;;;;;-1.24;100.00;101594.03;6254999;22;45353;-84
2022/12/18 10:16:58;;;;;;;;;63.50;46.00;;;;;-1.19;100.00;101597.94;6281300;22;46797;-84
2022/12/18 10:19:37;;;;;;;;;49.25;40.50;;;;;-1.13;100.00;101598.38;6255419;22;45831;-84
2022/12/18 10:22:03;;;;;;;;;52.25;48.75;;;;;-1.05;100.00;101601.53;6253360;22;44817;-85
2022/12/18 10:24:34;;;;;;;;;58.00;48.00;;;;;-0.97;100.00;101594.28;6253868;22;45322;-83
2022/12/18 10:27:17;;;;;;;;;57.75;48.75;;;;;-0.92;100.00;101587.72;6277210;22;47848;-84
2022/12/18 10:29:44;;;;;;;;;56.00;47.75;;;;;-0.85;100.00;101579.50;6253910;22;45368;-85
2022/12/18 10:32:21;;;;;;;;;41.00;37.00;;;;;-0.74;100.00;101586.44;6253134;22;45260;-84
2022/12/18 10:34:48;;;;;;;;;59.00;45.00;;;;;-0.73;100.00;101569.97;6255239;22;45258;-84
2022/12/18 10:37:18;;;;;;;;;60.50;49.00;;;;;-0.66;100.00;101582.69;6252501;22;46651;-83
2022/12/18 10:39:44;;;;;;;;;58.25;48.25;;;;;-0.65;100.00;101576.69;6253327;22;45342;-84
2022/12/18 10:45:17;;;;;;;;;58.00;49.00;;;;;-0.57;100.00;101565.84;6256121;22;44749;-84
2022/12/18 10:47:52;;;;;;;;;58.00;48.75;;;;;-0.54;100.00;101571.31;6257002;22;45247;-84
2022/12/18 10:50:28;;;;;;;;;45.50;45.00;;;;;-0.49;100.00;101560.38;6255677;22;45305;-84
2022/12/18 10:53:03;;;;;;;;;47.00;42.50;;;;;-0.42;100.00;101561.75;6252327;22;45413;-84
2022/12/18 10:55:37;;;;;;;;;50.50;39.50;;;;;-0.29;100.00;101561.78;6251377;22;45503;-84
2022/12/18 10:58:37;;;;;;;;;57.75;47.50;;;;;-0.35;100.00;101556.13;6228262;22;46723;-85
2022/12/18 11:01:08;;;;;;;;;59.00;49.50;;;;;-0.34;100.00;101557.97;6256216;22;44783;-84
2022/12/18 11:03:37;;;;;;;;;51.25;46.75;;;;;-0.26;100.00;101569.88;6229661;22;45259;-84
2022/12/18 11:06:12;;;;;;;;;52.00;47.50;;;;;-0.25;100.00;101565.53;6228600;22;45339;-83
2022/12/18 11:08:38;;;;;;;;;66.75;50.25;;;;;-0.19;100.00;101559.84;6227546;22;47019;-83
2022/12/18 11:11:15;;;;;;;;;74.50;56.50;;;;;-0.22;100.00;101560.53;6228380;22;45687;-83
2022/12/18 11:13:51;;;;;;;;;63.25;51.50;;;;;-0.11;100.00;101558.66;6253758;22;45262;-85
2022/12/18 11:16:20;;;;;;;;;38.75;33.25;;;;;0.02;100.00;101573.50;6255434;22;45457;-84
2022/12/18 11:18:46;;;;;;;;;70.75;56.25;;;;;0.09;100.00;101557.44;6254896;22;46047;-84
2022/12/18 11:21:13;;;;;;;;;61.00;50.50;;;;;0.15;100.00;101548.31;6255006;22;44829;-85
2022/12/18 11:23:49;;;;;;;;;55.25;46.75;;;;;0.22;100.00;101543.50;6254651;22;45429;-85
2022/12/18 11:26:15;;;;;;;;;62.25;51.75;;;;;0.19;100.00;101533.75;6229221;22;45388;-85
2022/12/18 11:28:46;;;;;;;;;57.75;51.50;;;;;0.25;100.00;101528.91;6227874;22;45977;-84
2022/12/18 11:31:23;;;;;;;;;58.00;45.00;;;;;0.32;98.89;101531.13;6256598;22;45283;-84
2022/12/18 11:34:30;;;;;;;;;53.00;49.25;;;;;0.32;98.89;101525.91;6227340;22;45352;-84
2022/12/18 11:36:58;;;;;;;;;56.25;50.25;;;;;0.34;100.00;101526.00;6130083;23;45572;-84
2022/12/18 11:39:38;;;;;;;;;61.75;52.75;;;;;0.40;100.00;101518.56;6105537;23;47478;-84
2022/12/18 11:42:20;;;;;;;;;61.25;51.00;;;;;0.41;99.14;101525.63;6129598;23;45422;-84